createdAt,value
2022-12-19T00:03:29.206Z,82.64
2022-12-19T00:08:34.389Z,82.59
2022-12-19T00:13:41.150Z,82.56
2022-12-19T00:18:48.649Z,82.70
2022-12-19T00:23:54.944Z,82.83
2022-12-19T00:29:09.835Z,82.53
2022-12-19T00:34:17.409Z,82.61
2022-12-19T00:39:22.799Z,82.64
2022-12-19T00:44:28.971Z,82.38
2022-12-19T00:49:32.487Z,82.51
2022-12-19T00:54:37.335Z,82.34
2022-12-19T00:59:41.735Z,82.43
2022-12-19T01:04:45.687Z,82.47
2022-12-19T01:09:50.121Z,82.43
2022-12-19T01:15:04.435Z,82.21
2022-12-19T01:20:11.385Z,82.03
2022-12-19T01:25:16.672Z,82.00
2022-12-19T01:30:21.233Z,81.88
2022-12-19T01:35:27.075Z,82.01
2022-12-19T01:40:32.152Z,82.12
2022-12-19T01:45:45.482Z,82.07
2022-12-19T01:51:01.359Z,82.15
2022-12-19T01:56:11.626Z,82.42
2022-12-19T02:01:18.985Z,82.30
2022-12-19T02:06:23.891Z,82.39
2022-12-19T02:11:28.916Z,82.50
2022-12-19T02:16:56.655Z,82.66
2022-12-19T02:22:24.459Z,82.72
2022-12-19T02:27:37.137Z,82.58
2022-12-19T02:32:52.414Z,82.31
2022-12-19T02:38:02.945Z,82.39
2022-12-19T02:43:13.809Z,82.76
2022-12-19T02:48:20.144Z,82.36
2022-12-19T02:53:24.987Z,82.46
2022-12-19T02:58:40.014Z,82.51
2022-12-19T03:03:47.170Z,82.41
2022-12-19T03:09:36.898Z,82.29
2022-12-19T03:14:42.308Z,81.94
2022-12-19T03:19:46.372Z,82.10
2022-12-19T03:24:51.678Z,81.91
2022-12-19T03:30:12.999Z,81.72
2022-12-19T03:35:30.312Z,81.47
2022-12-19T03:40:37.672Z,81.36
2022-12-19T03:45:58.591Z,81.53
2022-12-19T03:51:09.118Z,81.67
2022-12-19T03:56:57.181Z,81.47
2022-12-19T04:02:03.724Z,81.70
2022-12-19T04:07:09.039Z,81.42
2022-12-19T04:12:19.569Z,81.42
2022-12-19T04:17:37.512Z,81.35
2022-12-19T04:23:07.605Z,81.40
2022-12-19T04:28:31.566Z,81.38
2022-12-19T04:33:36.593Z,81.24
2022-12-19T04:38:41.620Z,81.51
2022-12-19T04:43:45.246Z,81.35
2022-12-19T04:48:49.701Z,81.38
2022-12-19T04:53:54.949Z,81.36
2022-12-19T04:59:00.553Z,81.34
2022-12-19T05:04:05.390Z,81.38
2022-12-19T05:09:14.690Z,81.49
2022-12-19T05:14:18.851Z,81.40
2022-12-19T05:19:23.238Z,81.07
2022-12-19T05:24:28.367Z,81.05
2022-12-19T05:29:33.445Z,80.93
2022-12-19T05:34:38.478Z,80.76
2022-12-19T05:39:43.905Z,81.12
2022-12-19T05:44:49.164Z,80.77
2022-12-19T05:49:54.708Z,80.86
2022-12-19T05:54:58.899Z,81.07
2022-12-19T06:00:05.552Z,80.89
2022-12-19T06:05:11.088Z,80.94
2022-12-19T06:10:17.016Z,80.73
2022-12-19T06:15:21.754Z,80.70
2022-12-19T06:20:26.741Z,80.83
2022-12-19T06:25:30.448Z,80.94
2022-12-19T06:30:34.848Z,80.85
2022-12-19T06:35:38.821Z,81.13
2022-12-19T06:41:03.697Z,80.85
2022-12-19T06:46:09.434Z,80.66
2022-12-19T06:51:14.875Z,80.49
2022-12-19T06:56:21.019Z,80.57
2022-12-19T07:01:41.323Z,80.73
2022-12-19T07:06:49.196Z,80.37
2022-12-19T07:11:55.119Z,80.64
2022-12-19T07:17:01.671Z,80.59
2022-12-19T07:22:07.037Z,80.35
2022-12-19T07:27:10.754Z,80.17
2022-12-19T07:32:15.136Z,80.16
2022-12-19T07:37:20.326Z,80.23
2022-12-19T07:42:29.351Z,80.30
2022-12-19T07:47:38.147Z,80.34
2022-12-19T07:52:42.950Z,80.47
2022-12-19T07:57:47.793Z,80.60
2022-12-19T08:02:52.235Z,80.38
2022-12-19T08:07:57.373Z,80.40
2022-12-19T08:13:02.421Z,80.37
2022-12-19T08:18:07.293Z,80.40
2022-12-19T08:23:10.726Z,80.38
2022-12-19T08:28:14.519Z,80.35
2022-12-19T08:33:20.641Z,80.15
2022-12-19T08:38:24.171Z,79.83
2022-12-19T08:43:29.173Z,79.71
2022-12-19T08:48:34.819Z,79.53
2022-12-19T08:53:41.911Z,79.38
2022-12-19T08:58:47.293Z,79.49
2022-12-19T09:04:41.423Z,79.66
2022-12-19T09:09:17.714Z,79.57
2022-12-19T09:14:22.434Z,79.39
2022-12-19T09:19:27.913Z,79.13
2022-12-19T09:24:33.077Z,79.23
2022-12-19T09:29:36.939Z,79.19
2022-12-19T09:34:42.032Z,79.07
2022-12-19T09:39:48.335Z,79.16
2022-12-19T09:45:00.735Z,78.89
2022-12-19T09:50:33.268Z,79.10
2022-12-19T09:55:41.253Z,79.05
2022-12-19T10:00:55.050Z,78.80
2022-12-19T10:07:11.418Z,78.51
2022-12-19T10:12:43.157Z,78.44
2022-12-19T10:17:23.599Z,78.18
2022-12-19T10:22:33.837Z,77.94
2022-12-19T10:27:59.446Z,77.58
2022-12-19T10:33:08.191Z,77.53
2022-12-19T10:38:38.350Z,77.13
2022-12-19T10:44:08.818Z,76.71
2022-12-19T10:49:18.432Z,76.46
2022-12-19T10:54:30.662Z,77.06
2022-12-19T10:59:38.957Z,77.03
2022-12-19T11:04:43.161Z,76.46
2022-12-19T11:10:09.174Z,76.00
2022-12-19T11:19:41.890Z,75.36
2022-12-19T11:29:54.792Z,75.36
2022-12-19T11:30:36.283Z,75.21
2022-12-19T11:37:00.565Z,74.33
2022-12-19T11:42:09.018Z,74.26
2022-12-19T11:47:25.898Z,74.14
2022-12-19T11:53:13.016Z,73.77
2022-12-19T11:58:26.244Z,73.79
2022-12-19T12:04:03.286Z,73.60
2022-12-19T12:11:13.853Z,73.69
2022-12-19T12:24:36.940Z,73.63
2022-12-19T12:31:05.880Z,73.61
2022-12-19T12:31:52.365Z,73.82
2022-12-19T12:35:55.108Z,73.78
2022-12-19T12:38:23.457Z,73.74
2022-12-19T12:43:57.680Z,73.64
2022-12-19T12:49:06.749Z,73.65
2022-12-19T12:54:16.907Z,73.57
2022-12-19T12:59:26.929Z,73.86
2022-12-19T13:04:34.116Z,74.15
2022-12-19T13:09:38.038Z,73.86
2022-12-19T13:14:46.254Z,73.70
2022-12-19T13:20:06.415Z,73.89
2022-12-19T13:25:48.711Z,73.59
2022-12-19T13:31:18.645Z,73.71
2022-12-19T13:39:51.597Z,73.55
2022-12-19T13:42:40.659Z,73.59
2022-12-19T13:47:45.783Z,73.54
2022-12-19T13:52:51.447Z,73.80
2022-12-19T13:57:56.334Z,73.89
2022-12-19T14:03:01.734Z,73.92
2022-12-19T14:08:08.268Z,74.02
2022-12-19T14:13:57.635Z,74.24
2022-12-19T14:19:01.722Z,74.30
2022-12-19T14:24:22.964Z,74.64
2022-12-19T14:30:26.730Z,74.89
2022-12-19T14:36:06.965Z,75.04
2022-12-19T14:40:41.977Z,74.99
2022-12-19T14:54:10.727Z,75.15
2022-12-19T14:54:21.239Z,75.25
2022-12-19T14:57:04.851Z,75.28
2022-12-19T15:02:10.676Z,75.40
2022-12-19T15:07:19.850Z,75.62
2022-12-19T15:14:47.748Z,75.55
2022-12-19T15:18:28.150Z,75.44
2022-12-19T15:23:33.684Z,75.64
2022-12-19T15:28:44.136Z,75.88
2022-12-19T15:34:23.408Z,75.98
2022-12-19T15:39:15.914Z,76.11
2022-12-19T15:44:31.549Z,76.45
2022-12-19T15:49:37.087Z,76.12
2022-12-19T15:54:50.504Z,76.27
2022-12-19T16:00:01.624Z,76.47
2022-12-19T16:05:07.456Z,76.77
2022-12-19T16:10:13.678Z,76.77
2022-12-19T16:15:31.479Z,76.79
2022-12-19T16:20:38.815Z,77.11
2022-12-19T16:25:46.712Z,77.46
2022-12-19T16:30:50.927Z,77.52
2022-12-19T16:36:04.649Z,77.83
2022-12-19T16:41:31.051Z,78.09
2022-12-19T16:46:51.146Z,77.91
2022-12-19T16:51:56.551Z,78.39
2022-12-19T16:57:04.366Z,78.33
2022-12-19T17:02:39.046Z,78.20
2022-12-19T17:07:44.919Z,78.45
2022-12-19T17:12:51.015Z,78.34
2022-12-19T17:18:01.694Z,78.61
2022-12-19T17:23:21.990Z,78.87
2022-12-19T17:28:28.834Z,78.66
2022-12-19T17:33:37.566Z,78.69
2022-12-19T17:38:42.195Z,78.76
2022-12-19T17:43:46.764Z,78.95
2022-12-19T17:48:54.140Z,78.82
2022-12-19T17:53:59.207Z,79.03
2022-12-19T17:59:04.373Z,79.25
2022-12-19T18:04:17.893Z,79.35
2022-12-19T18:09:25.886Z,79.42
2022-12-19T18:14:32.048Z,79.47
2022-12-19T18:19:36.778Z,79.65
2022-12-19T18:24:41.457Z,79.58
2022-12-19T18:35:57.684Z,79.90
2022-12-19T18:41:04.165Z,79.75
2022-12-19T18:46:17.136Z,79.71
2022-12-19T18:51:23.892Z,79.93
2022-12-19T18:56:29.709Z,79.65
2022-12-19T19:01:40.300Z,79.91
2022-12-19T19:06:51.100Z,79.86
2022-12-19T19:11:56.380Z,80.06
2022-12-19T19:17:04.980Z,79.79
2022-12-19T19:22:11.469Z,79.98
2022-12-19T19:27:16.189Z,79.99
2022-12-19T19:32:20.722Z,80.03
2022-12-19T19:37:26.747Z,80.07
2022-12-19T19:42:30.712Z,80.13
2022-12-19T19:47:37.739Z,80.05
2022-12-19T19:52:42.339Z,80.13
2022-12-19T19:57:46.185Z,80.36
2022-12-19T20:02:52.164Z,80.23
2022-12-19T20:07:56.747Z,80.34
2022-12-19T20:13:00.491Z,80.26
2022-12-19T20:18:03.869Z,80.34
2022-12-19T20:23:07.982Z,80.30
2022-12-19T20:28:11.559Z,80.61
2022-12-19T20:33:16.092Z,80.33
2022-12-19T20:38:20.945Z,80.55
2022-12-19T20:43:25.254Z,80.43
2022-12-19T20:48:32.175Z,80.71
2022-12-19T20:53:38.234Z,80.84
2022-12-19T20:58:42.594Z,80.58
2022-12-19T21:03:48.610Z,80.45
2022-12-19T21:08:55.775Z,80.38
2022-12-19T21:14:06.724Z,80.58
2022-12-19T21:19:12.491Z,80.24
2022-12-19T21:24:17.496Z,80.47
2022-12-19T21:29:22.640Z,80.32
2022-12-19T21:34:27.281Z,79.79
2022-12-19T21:39:32.144Z,79.90
2022-12-19T21:44:38.206Z,79.99
2022-12-19T21:49:43.271Z,79.93
2022-12-19T21:54:47.954Z,79.71
2022-12-19T21:59:52.939Z,80.11
2022-12-19T22:04:57.447Z,80.22
2022-12-19T22:10:02.524Z,80.18
2022-12-19T22:15:07.410Z,79.83
2022-12-19T22:20:12.893Z,80.13
2022-12-19T22:25:18.395Z,80.31
2022-12-19T22:30:23.383Z,79.88
2022-12-19T22:35:28.563Z,80.03
2022-12-19T22:40:33.425Z,80.04
2022-12-19T22:45:38.072Z,80.12
2022-12-19T22:50:47.395Z,80.05
2022-12-19T22:55:52.180Z,80.08
2022-12-19T23:00:57.130Z,79.94
2022-12-19T23:06:02.986Z,79.91
2022-12-19T23:11:09.978Z,80.03
2022-12-19T23:16:14.084Z,80.23
2022-12-19T23:21:25.134Z,80.04
2022-12-19T23:26:33.755Z,80.38
2022-12-19T23:31:41.620Z,80.44
2022-12-19T23:42:11.294Z,80.51
2022-12-19T23:47:14.899Z,80.74
2022-12-19T23:52:18.808Z,81.09
2022-12-19T23:57:22.363Z,81.54
